Time;durP1;ratioP1;P1;durP2;ratioP2;P2;SDS_P1;SDS_P2;PMS_P1;PMS_P2;Temp;Humidity;BMP_temperature;BMP_pressure;BME280_temperature;BME280_humidity;BME280_pressure;Samples;Min_cycle;Max_cycle;Signal;HPM_P1;HPM_P2
2022/10/30 00:01:59;;;;;;;16.80;11.80;;;13.10;99.90;;;;;;4946810;28;20035;-77
2022/10/30 00:04:25;;;;;;;15.00;11.63;;;13.00;99.90;;;;;;4952840;29;20456;-77
2022/10/30 00:06:50;;;;;;;16.63;11.90;;;13.10;99.90;;;;;;4965131;28;20035;-77
2022/10/30 00:09:16;;;;;;;17.83;12.93;;;13.00;99.90;;;;;;4943633;28;20181;-77
2022/10/30 00:11:41;;;;;;;18.65;12.52;;;12.90;99.90;;;;;;4977266;28;20039;-77
2022/10/30 00:14:07;;;;;;;16.80;12.43;;;12.90;99.90;;;;;;4938915;28;20035;-77
2022/10/30 00:16:33;;;;;;;15.68;12.27;;;12.90;99.90;;;;;;4967244;28;20050;-77
2022/10/30 00:18:59;;;;;;;17.90;12.15;;;12.90;99.90;;;;;;4949659;28;20042;-77
2022/10/30 00:21:24;;;;;;;16.58;12.55;;;12.80;99.90;;;;;;4971649;28;20034;-77
2022/10/30 00:23:52;;;;;;;17.73;12.05;;;12.90;99.90;;;;;;4971687;28;20484;-77
2022/10/30 00:26:19;;;;;;;17.08;12.43;;;12.80;99.90;;;;;;4971488;28;20050;-77
2022/10/30 00:28:49;;;;;;;16.70;11.98;;;12.70;99.90;;;;;;4938987;28;20053;-77
2022/10/30 00:31:14;;;;;;;19.50;11.95;;;12.70;99.90;;;;;;4977133;28;20038;-77
2022/10/30 00:33:40;;;;;;;20.08;12.68;;;12.70;99.90;;;;;;4960117;28;20049;-77
2022/10/30 00:36:06;;;;;;;14.52;11.73;;;12.70;99.90;;;;;;4979871;28;20505;-78
2022/10/30 00:38:31;;;;;;;18.02;12.85;;;12.70;99.90;;;;;;4981889;28;20038;-77
2022/10/30 00:40:57;;;;;;;18.42;12.82;;;12.60;99.90;;;;;;4967957;28;20121;-77
2022/10/30 00:43:32;;;;;;;21.25;13.48;;;12.60;99.90;;;;;;4990323;28;20492;-77
2022/10/30 00:46:13;;;;;;;20.48;13.93;;;12.60;99.90;;;;;;4955464;28;20085;-77
2022/10/30 00:48:39;;;;;;;16.55;11.95;;;12.60;99.90;;;;;;4946830;28;20053;-77
2022/10/30 00:51:08;;;;;;;16.92;12.82;;;12.60;99.90;;;;;;4980237;28;20043;-78
2022/10/30 00:53:34;;;;;;;23.13;14.63;;;12.60;99.90;;;;;;4958260;28;20526;-77
2022/10/30 00:56:03;;;;;;;19.45;13.73;;;12.60;99.90;;;;;;4950818;28;20135;-77
2022/10/30 00:58:39;;;;;;;19.25;13.82;;;12.60;99.90;;;;;;4960331;28;20042;-77
2022/10/30 01:01:10;;;;;;;19.38;13.65;;;12.70;99.90;;;;;;4990626;28;20133;-77
2022/10/30 01:03:37;;;;;;;16.92;12.95;;;12.70;99.90;;;;;;4990707;28;20042;-77
2022/10/30 01:06:06;;;;;;;22.25;12.95;;;12.80;99.90;;;;;;4950340;28;20092;-77
2022/10/30 01:08:33;;;;;;;17.00;12.95;;;12.70;99.90;;;;;;4975376;28;20089;-77
2022/10/30 01:11:02;;;;;;;18.65;13.68;;;12.80;99.90;;;;;;4981178;28;20089;-77
2022/10/30 01:13:28;;;;;;;19.52;13.43;;;12.70;99.90;;;;;;4990701;28;20540;-77
2022/10/30 01:15:53;;;;;;;17.98;13.63;;;12.70;99.90;;;;;;4974370;28;20092;-77
2022/10/30 01:18:44;;;;;;;19.92;13.30;;;12.80;99.90;;;;;;4965015;28;20113;-77
2022/10/30 01:21:52;;;;;;;17.10;13.07;;;12.80;99.90;;;;;;4965522;28;20448;-77
2022/10/30 01:24:32;;;;;;;16.40;13.10;;;12.80;99.90;;;;;;4945065;28;20614;-77
2022/10/30 01:27:25;;;;;;;19.10;13.07;;;12.80;99.90;;;;;;4974104;28;20505;-77
2022/10/30 01:30:15;;;;;;;22.42;12.85;;;12.80;99.90;;;;;;4939136;29;20043;-77
2022/10/30 01:33:23;;;;;;;19.20;13.48;;;12.80;99.90;;;;;;4963287;28;20512;-77
2022/10/30 01:35:53;;;;;;;20.48;13.15;;;12.80;99.90;;;;;;4937622;29;20043;-77
2022/10/30 01:38:28;;;;;;;18.45;13.35;;;12.80;99.90;;;;;;4956530;28;20058;-77
2022/10/30 01:40:54;;;;;;;18.45;13.15;;;12.70;99.90;;;;;;4974534;28;20347;-77
2022/10/30 01:43:19;;;;;;;16.95;12.73;;;12.70;99.90;;;;;;4974168;28;20043;-77
2022/10/30 01:45:51;;;;;;;18.80;13.00;;;12.60;99.90;;;;;;4973743;28;20049;-77
2022/10/30 01:48:34;;;;;;;19.88;12.57;;;12.60;99.90;;;;;;4974689;28;20397;-77
2022/10/30 01:51:28;;;;;;;19.02;14.05;;;12.60;99.90;;;;;;4961306;28;20085;-77
2022/10/30 01:54:15;;;;;;;18.13;12.95;;;12.60;99.90;;;;;;4937940;28;20517;-77
2022/10/30 01:57:01;;;;;;;19.00;13.32;;;12.60;99.90;;;;;;4974040;28;20039;-77
2022/10/30 01:59:47;;;;;;;21.17;13.40;;;12.60;99.90;;;;;;4966311;28;20235;-77
2022/10/30 02:02:13;;;;;;;19.05;13.60;;;12.60;99.90;;;;;;4973993;28;20038;-77
2022/10/30 02:04:39;;;;;;;20.33;13.65;;;12.60;99.90;;;;;;4982699;28;20049;-77
2022/10/30 02:07:05;;;;;;;18.05;12.77;;;12.60;99.90;;;;;;4949983;28;20069;-77
2022/10/30 02:09:31;;;;;;;21.20;13.77;;;12.60;99.90;;;;;;4941883;28;20038;-77
2022/10/30 02:11:58;;;;;;;17.85;13.07;;;12.60;99.90;;;;;;4942215;28;20054;-77
2022/10/30 02:14:31;;;;;;;17.70;12.82;;;12.60;99.90;;;;;;4974149;28;20119;-77
2022/10/30 02:16:59;;;;;;;24.10;13.25;;;12.40;99.90;;;;;;4982445;28;20125;-77
2022/10/30 02:19:24;;;;;;;18.63;13.68;;;12.40;99.90;;;;;;4973645;28;20054;-77
2022/10/30 02:21:51;;;;;;;15.73;12.63;;;12.40;99.90;;;;;;4971425;28;20039;-77
2022/10/30 02:24:16;;;;;;;16.67;12.30;;;12.30;99.90;;;;;;4973442;28;20054;-78
2022/10/30 02:26:42;;;;;;;19.15;12.02;;;12.20;99.90;;;;;;4977714;28;20073;-77
2022/10/30 02:29:08;;;;;;;15.82;11.90;;;12.20;99.90;;;;;;4980220;28;20049;-77
2022/10/30 02:31:34;;;;;;;15.45;10.98;;;12.20;99.90;;;;;;4973683;28;20057;-77
2022/10/30 02:33:59;;;;;;;20.13;13.20;;;12.10;99.90;;;;;;4972811;28;20042;-77
2022/10/30 02:36:25;;;;;;;16.10;13.57;;;12.00;99.90;;;;;;4948407;28;20042;-77
2022/10/30 02:38:50;;;;;;;16.20;12.13;;;12.00;99.90;;;;;;4970681;28;20505;-77
2022/10/30 02:41:16;;;;;;;20.40;15.05;;;12.00;99.90;;;;;;4959138;28;20037;-77
2022/10/30 02:43:41;;;;;;;19.58;14.85;;;12.00;99.90;;;;;;4949162;28;20134;-77
2022/10/30 02:46:07;;;;;;;22.58;14.55;;;11.90;99.90;;;;;;4957183;28;20046;-77
2022/10/30 02:48:33;;;;;;;16.33;13.88;;;12.00;99.90;;;;;;4939644;28;20117;-77
2022/10/30 02:51:03;;;;;;;24.13;14.15;;;12.00;99.90;;;;;;4973267;28;20390;-77
2022/10/30 02:53:29;;;;;;;21.38;14.55;;;11.90;99.90;;;;;;4945327;28;20040;-77
2022/10/30 02:55:54;;;;;;;21.55;13.88;;;11.90;99.90;;;;;;4976910;28;20141;-77
2022/10/30 02:58:20;;;;;;;18.60;13.73;;;12.00;99.90;;;;;;4971480;28;20047;-77
2022/10/30 03:00:46;;;;;;;18.63;14.23;;;12.00;99.90;;;;;;4940805;28;20731;-77
2022/10/30 03:03:11;;;;;;;19.42;14.18;;;12.00;99.90;;;;;;4972786;28;20038;-77
2022/10/30 03:05:37;;;;;;;18.85;14.18;;;12.00;99.90;;;;;;4939871;28;20050;-77
2022/10/30 03:08:03;;;;;;;19.98;13.80;;;11.90;99.90;;;;;;4954921;28;20121;-77
2022/10/30 03:10:28;;;;;;;22.25;14.15;;;11.90;99.90;;;;;;4980011;28;20536;-77
2022/10/30 03:12:54;;;;;;;20.05;14.10;;;11.90;99.90;;;;;;4972679;28;20039;-77
2022/10/30 03:15:19;;;;;;;18.13;13.52;;;11.80;99.90;;;;;;4972766;28;20051;-77
2022/10/30 03:17:45;;;;;;;19.88;13.20;;;11.80;99.90;;;;;;4940892;28;20532;-77
2022/10/30 03:20:11;;;;;;;19.95;13.65;;;11.80;99.90;;;;;;4965350;28;20524;-77
2022/10/30 03:22:37;;;;;;;17.13;12.98;;;11.80;99.90;;;;;;4939705;28;20035;-77
2022/10/30 03:25:03;;;;;;;19.70;13.82;;;11.70;99.90;;;;;;4940397;28;20093;-77
2022/10/30 03:27:28;;;;;;;18.80;12.88;;;11.70;99.90;;;;;;4954745;28;20038;-77
2022/10/30 03:29:54;;;;;;;23.73;14.38;;;11.60;99.90;;;;;;4972053;28;20043;-77
2022/10/30 03:32:19;;;;;;;20.30;13.55;;;11.60;99.90;;;;;;4942099;28;20489;-77
2022/10/30 03:34:45;;;;;;;18.15;13.25;;;11.50;99.90;;;;;;4959547;28;20081;-77
2022/10/30 03:37:10;;;;;;;18.27;13.43;;;11.50;99.90;;;;;;4972989;28;20046;-77
2022/10/30 03:39:36;;;;;;;20.10;13.70;;;11.50;99.90;;;;;;4972159;28;20073;-77
2022/10/30 03:42:02;;;;;;;17.38;13.85;;;11.50;99.90;;;;;;4939902;28;20391;-77
2022/10/30 03:44:27;;;;;;;22.38;14.70;;;11.40;99.90;;;;;;4943038;28;20065;-77
2022/10/30 03:46:53;;;;;;;18.20;13.88;;;11.40;99.90;;;;;;4981455;28;20042;-77
2022/10/30 03:49:18;;;;;;;18.23;13.30;;;11.40;99.90;;;;;;4939546;28;20493;-77
2022/10/30 03:51:44;;;;;;;20.67;13.88;;;11.30;99.90;;;;;;4939845;28;20047;-77
2022/10/30 03:54:10;;;;;;;21.95;14.15;;;11.30;99.90;;;;;;4955812;28;20071;-77
2022/10/30 03:56:35;;;;;;;20.33;14.50;;;11.30;99.90;;;;;;4953124;28;20409;-77
2022/10/30 03:59:01;;;;;;;17.63;14.50;;;11.30;99.90;;;;;;4954869;28;20125;-77
2022/10/30 04:01:26;;;;;;;24.33;15.52;;;11.30;99.90;;;;;;4979481;28;20077;-77
2022/10/30 04:03:52;;;;;;;20.75;14.43;;;11.30;99.90;;;;;;4972048;28;20046;-77
2022/10/30 04:06:17;;;;;;;21.63;15.30;;;11.30;99.90;;;;;;4970798;28;20051;-77
2022/10/30 04:08:43;;;;;;;21.30;15.68;;;11.30;99.90;;;;;;4955590;28;20093;-77
2022/10/30 04:11:12;;;;;;;18.00;15.23;;;11.20;99.90;;;;;;4939793;28;20460;-77
2022/10/30 04:13:38;;;;;;;19.70;14.77;;;11.20;99.90;;;;;;4959493;28;20065;-77
2022/10/30 04:16:05;;;;;;;25.13;15.45;;;11.30;99.90;;;;;;4979739;28;20069;-77
2022/10/30 04:18:31;;;;;;;19.35;14.82;;;11.20;99.90;;;;;;4971145;28;20125;-77
2022/10/30 04:20:58;;;;;;;18.02;14.93;;;11.20;99.90;;;;;;4971889;28;20076;-77
2022/10/30 04:23:24;;;;;;;18.75;13.77;;;11.20;99.90;;;;;;4957608;28;20093;-77
2022/10/30 04:25:49;;;;;;;19.02;13.18;;;11.20;99.90;;;;;;4949982;28;20046;-77
2022/10/30 04:28:16;;;;;;;22.95;14.80;;;11.10;99.90;;;;;;4980622;23;20037;-79
2022/10/30 04:30:46;;;;;;;24.13;15.05;;;11.10;99.90;;;;;;5014006;28;20033;-79
2022/10/30 04:33:13;;;;;;;23.98;16.10;;;11.10;99.90;;;;;;5013718;28;20038;-79
2022/10/30 04:35:42;;;;;;;20.50;15.50;;;11.10;99.90;;;;;;5013989;28;20132;-78
2022/10/30 04:38:14;;;;;;;23.15;16.08;;;11.10;99.90;;;;;;5006379;28;20125;-78
2022/10/30 04:40:45;;;;;;;22.50;16.88;;;11.20;99.90;;;;;;4987767;28;20433;-78
2022/10/30 04:43:13;;;;;;;25.02;16.00;;;11.20;99.90;;;;;;5009586;28;20049;-78
2022/10/30 04:45:42;;;;;;;24.67;16.55;;;11.20;99.90;;;;;;4978067;28;20042;-78
2022/10/30 04:48:17;;;;;;;21.77;15.20;;;11.20;99.90;;;;;;4985577;28;20049;-79
2022/10/30 04:50:43;;;;;;;21.45;16.02;;;11.20;99.90;;;;;;4979753;28;20046;-78
2022/10/30 04:53:19;;;;;;;21.10;15.25;;;11.20;99.90;;;;;;4977681;28;20128;-78
2022/10/30 04:55:53;;;;;;;23.98;15.57;;;11.20;99.90;;;;;;4963485;28;20392;-78
2022/10/30 04:58:22;;;;;;;22.10;16.27;;;11.20;99.90;;;;;;4987064;28;20038;-78
2022/10/30 05:00:47;;;;;;;21.75;17.20;;;11.10;99.90;;;;;;4965399;28;20049;-79
2022/10/30 05:03:24;;;;;;;19.98;15.20;;;11.20;99.90;;;;;;4991997;28;20519;-78
2022/10/30 05:05:58;;;;;;;25.25;17.73;;;11.20;99.90;;;;;;5008198;28;20407;-78
2022/10/30 05:08:25;;;;;;;22.63;15.85;;;11.20;99.90;;;;;;5008246;28;20045;-78
2022/10/30 05:10:55;;;;;;;19.85;15.25;;;11.20;99.90;;;;;;5017580;28;20623;-78
2022/10/30 05:13:22;;;;;;;28.23;17.10;;;11.20;99.90;;;;;;4999278;28;20492;-78
2022/10/30 05:15:48;;;;;;;24.80;16.70;;;11.10;99.90;;;;;;4992581;28;20044;-78
2022/10/30 05:18:15;;;;;;;23.60;17.42;;;11.10;99.90;;;;;;4986188;28;20287;-78
2022/10/30 05:20:41;;;;;;;23.23;17.10;;;11.20;99.90;;;;;;4986882;28;20068;-78
2022/10/30 05:23:10;;;;;;;25.30;17.85;;;11.20;99.90;;;;;;4999845;28;20049;-78
2022/10/30 05:25:39;;;;;;;20.27;16.70;;;11.20;99.90;;;;;;4981286;28;20037;-78
2022/10/30 05:28:07;;;;;;;22.50;17.02;;;11.20;99.90;;;;;;5002574;28;20488;-79
2022/10/30 05:30:34;;;;;;;27.48;18.65;;;11.20;99.90;;;;;;4986718;28;20096;-78
2022/10/30 05:33:09;;;;;;;24.63;17.52;;;11.20;99.90;;;;;;4977441;28;20034;-78
2022/10/30 05:35:36;;;;;;;23.63;17.08;;;11.30;99.90;;;;;;4986965;28;20041;-78
2022/10/30 05:38:05;;;;;;;26.05;17.40;;;11.20;99.90;;;;;;4993388;28;20037;-79
2022/10/30 05:40:32;;;;;;;28.65;18.25;;;11.20;99.90;;;;;;4991960;28;20041;-78
2022/10/30 05:42:59;;;;;;;27.40;18.08;;;11.20;99.90;;;;;;4998909;28;20065;-78
2022/10/30 05:45:26;;;;;;;25.15;17.25;;;11.20;99.90;;;;;;4972805;28;20556;-78
2022/10/30 05:47:59;;;;;;;29.38;18.73;;;11.30;99.90;;;;;;4986525;28;20120;-79
2022/10/30 05:50:28;;;;;;;26.70;18.60;;;11.20;99.90;;;;;;4985527;28;20045;-78
2022/10/30 05:52:58;;;;;;;27.13;18.65;;;11.20;99.90;;;;;;4965393;28;20042;-78
2022/10/30 05:55:24;;;;;;;25.30;17.67;;;11.20;99.90;;;;;;4990090;28;20033;-78
2022/10/30 05:57:55;;;;;;;26.27;18.58;;;11.30;99.90;;;;;;5010505;28;20037;-78
2022/10/30 06:00:22;;;;;;;21.95;18.35;;;11.30;99.90;;;;;;4993545;28;20066;-78
2022/10/30 06:02:49;;;;;;;21.27;16.02;;;11.20;99.90;;;;;;4961393;28;20034;-78
2022/10/30 06:05:15;;;;;;;22.40;16.38;;;11.20;99.90;;;;;;4978027;28;20034;-78
2022/10/30 06:07:44;;;;;;;25.23;17.55;;;11.20;99.90;;;;;;4998554;28;20172;-78
2022/10/30 06:10:11;;;;;;;18.92;16.45;;;11.20;99.90;;;;;;4997172;28;20138;-78
2022/10/30 06:12:37;;;;;;;27.20;18.17;;;11.20;99.90;;;;;;4988293;28;20060;-78
2022/10/30 06:15:04;;;;;;;23.70;18.38;;;11.10;99.90;;;;;;4998705;28;20507;-78
2022/10/30 06:17:31;;;;;;;25.73;17.75;;;11.10;99.90;;;;;;5000358;28;20096;-78
2022/10/30 06:19:57;;;;;;;24.58;16.73;;;11.10;99.90;;;;;;4974578;28;20034;-78
2022/10/30 06:22:23;;;;;;;27.77;18.65;;;11.00;99.90;;;;;;4985391;28;20133;-78
2022/10/30 06:24:52;;;;;;;22.00;16.80;;;11.00;99.90;;;;;;4996085;28;20041;-78
2022/10/30 06:27:18;;;;;;;23.27;17.27;;;11.00;99.90;;;;;;4985954;28;20041;-78
2022/10/30 06:29:45;;;;;;;24.65;17.40;;;11.00;99.90;;;;;;4982833;28;20037;-78
2022/10/30 06:32:11;;;;;;;26.80;17.83;;;11.00;99.90;;;;;;4986280;28;20446;-78
2022/10/30 06:34:45;;;;;;;23.17;17.45;;;11.00;99.90;;;;;;4997217;28;20423;-78
2022/10/30 06:37:11;;;;;;;22.02;16.73;;;10.90;99.90;;;;;;5020264;28;20041;-78
2022/10/30 06:39:41;;;;;;;25.83;17.02;;;10.90;99.90;;;;;;4992870;28;20044;-78
2022/10/30 06:42:12;;;;;;;24.25;17.60;;;10.90;99.90;;;;;;5000247;28;20030;-78
2022/10/30 06:44:38;;;;;;;26.52;18.55;;;10.90;99.90;;;;;;5011274;28;20045;-78
2022/10/30 06:47:04;;;;;;;30.05;19.15;;;10.90;99.90;;;;;;5005235;28;20038;-79
2022/10/30 06:49:30;;;;;;;26.67;20.23;;;10.90;99.90;;;;;;5008240;28;20406;-78
2022/10/30 06:51:56;;;;;;;25.58;19.90;;;11.00;99.90;;;;;;5015429;28;20128;-78
2022/10/30 06:54:22;;;;;;;24.25;19.23;;;11.00;99.90;;;;;;5008786;28;20056;-78
2022/10/30 06:56:51;;;;;;;28.23;19.77;;;11.00;99.90;;;;;;4988407;28;20433;-78
2022/10/30 06:59:17;;;;;;;29.65;20.63;;;11.10;99.90;;;;;;5005615;28;20104;-78
2022/10/30 07:01:43;;;;;;;28.17;20.00;;;11.10;99.90;;;;;;4979659;28;20049;-78
2022/10/30 07:04:08;;;;;;;30.90;19.75;;;11.10;99.90;;;;;;4983474;28;20049;-78
2022/10/30 07:06:37;;;;;;;23.27;19.25;;;11.10;99.90;;;;;;4998612;28;20109;-80
2022/10/30 07:09:11;;;;;;;35.33;21.23;;;11.10;99.90;;;;;;5118963;23;20052;-80
2022/10/30 07:11:53;;;;;;;30.60;21.73;;;11.10;99.90;;;;;;4948329;29;20043;-80
2022/10/30 07:14:22;;;;;;;28.20;20.73;;;11.20;99.90;;;;;;4928987;29;20051;-79
2022/10/30 07:16:53;;;;;;;31.70;19.23;;;11.20;99.90;;;;;;4949841;28;20501;-79
2022/10/30 07:19:23;;;;;;;28.35;20.17;;;11.10;99.90;;;;;;4957372;28;20035;-80
2022/10/30 07:21:53;;;;;;;30.08;21.25;;;11.30;99.90;;;;;;4989086;23;20047;-79
2022/10/30 07:24:19;;;;;;;28.23;20.23;;;11.30;99.90;;;;;;4975261;28;20547;-79
2022/10/30 07:26:44;;;;;;;28.20;21.17;;;11.30;99.90;;;;;;4978785;28;20042;-79
2022/10/30 07:29:10;;;;;;;30.75;20.00;;;11.30;99.90;;;;;;4994241;28;20080;-80
2022/10/30 07:31:35;;;;;;;27.45;20.98;;;11.40;99.90;;;;;;4991023;28;20496;-79
2022/10/30 07:34:01;;;;;;;31.58;21.58;;;11.40;99.90;;;;;;4957662;28;20043;-79
2022/10/30 07:36:27;;;;;;;27.40;21.20;;;11.40;99.90;;;;;;4972662;28;20145;-80
2022/10/30 07:38:52;;;;;;;29.95;20.65;;;11.40;99.90;;;;;;4959357;28;20046;-79
2022/10/30 07:41:19;;;;;;;27.23;21.02;;;11.50;99.90;;;;;;4985445;28;20113;-80
2022/10/30 07:43:45;;;;;;;30.55;22.00;;;11.50;99.90;;;;;;4959137;28;20081;-78
2022/10/30 07:46:10;;;;;;;29.02;21.40;;;11.50;99.90;;;;;;4955603;28;20078;-82
2022/10/30 07:48:36;;;;;;;28.48;20.70;;;11.50;99.90;;;;;;4944158;28;21876;-84
2022/10/30 07:51:02;;;;;;;28.48;21.35;;;11.60;99.90;;;;;;4954001;28;20049;-80
2022/10/30 07:53:28;;;;;;;27.92;21.27;;;11.60;99.90;;;;;;4975443;28;20406;-81
2022/10/30 07:55:54;;;;;;;28.02;21.35;;;11.70;99.90;;;;;;4991402;28;20043;-81
2022/10/30 07:58:20;;;;;;;30.95;21.25;;;11.70;99.90;;;;;;4969415;28;20485;-79
2022/10/30 08:00:46;;;;;;;29.92;21.63;;;11.70;99.90;;;;;;4974878;28;20125;-81
2022/10/30 08:03:12;;;;;;;31.92;22.20;;;11.80;99.90;;;;;;4954632;28;20118;-79
2022/10/30 08:05:38;;;;;;;29.38;22.48;;;11.80;99.90;;;;;;4948208;28;20060;-80
2022/10/30 08:08:04;;;;;;;32.45;23.23;;;11.90;99.90;;;;;;4956186;28;20038;-80
2022/10/30 08:10:29;;;;;;;28.92;22.25;;;11.90;99.90;;;;;;4989337;28;20046;-80
2022/10/30 08:12:55;;;;;;;31.20;23.58;;;12.00;99.90;;;;;;4981459;28;20078;-80
2022/10/30 08:15:22;;;;;;;32.30;22.90;;;12.00;99.90;;;;;;4966253;28;20130;-80
2022/10/30 08:17:49;;;;;;;27.85;21.45;;;12.10;99.90;;;;;;4972997;28;20038;-80
2022/10/30 08:20:17;;;;;;;29.98;22.40;;;12.10;99.90;;;;;;4957689;28;20088;-80
2022/10/30 08:22:54;;;;;;;32.17;23.02;;;12.20;99.90;;;;;;4989605;28;20042;-80
2022/10/30 08:25:23;;;;;;;36.80;23.40;;;12.20;99.90;;;;;;4957861;28;20054;-80
2022/10/30 08:27:51;;;;;;;36.30;24.90;;;12.30;99.90;;;;;;4990861;28;20041;-80
2022/10/30 08:30:17;;;;;;;30.17;22.98;;;12.30;99.90;;;;;;4958879;28;20113;-80
2022/10/30 08:32:42;;;;;;;29.45;22.55;;;12.40;99.90;;;;;;4977694;28;20523;-80
2022/10/30 08:35:08;;;;;;;29.58;22.70;;;12.50;99.90;;;;;;4978824;28;20049;-80
2022/10/30 08:37:34;;;;;;;35.80;23.60;;;12.50;99.90;;;;;;4977728;28;20038;-81
2022/10/30 08:39:59;;;;;;;31.48;24.25;;;12.60;99.90;;;;;;4995127;28;20053;-80
2022/10/30 08:42:25;;;;;;;31.30;23.70;;;12.60;99.90;;;;;;4975527;28;20035;-80
2022/10/30 08:44:51;;;;;;;28.25;22.48;;;12.70;99.90;;;;;;4959548;28;20042;-80
2022/10/30 08:47:17;;;;;;;31.63;23.23;;;12.80;99.90;;;;;;4975249;28;20417;-80
2022/10/30 08:49:42;;;;;;;30.17;23.02;;;12.90;99.90;;;;;;4977788;28;20417;-81
2022/10/30 08:52:08;;;;;;;27.77;22.63;;;12.90;99.90;;;;;;4978994;28;20050;-80
2022/10/30 08:54:34;;;;;;;31.10;23.67;;;12.90;99.90;;;;;;4977525;28;20129;-80
2022/10/30 08:57:00;;;;;;;31.75;22.80;;;13.10;99.90;;;;;;4994324;28;20113;-80
2022/10/30 08:59:25;;;;;;;29.33;21.77;;;13.20;99.90;;;;;;4962430;28;20038;-80
2022/10/30 09:01:51;;;;;;;27.67;21.05;;;13.30;99.90;;;;;;4962514;28;20489;-80
2022/10/30 09:04:16;;;;;;;29.08;22.27;;;13.40;99.90;;;;;;4977793;28;20077;-80
2022/10/30 09:06:42;;;;;;;27.42;20.98;;;13.40;99.90;;;;;;4978470;28;20046;-80
2022/10/30 09:09:07;;;;;;;28.48;21.13;;;13.50;99.90;;;;;;4978260;28;20094;-80
2022/10/30 09:11:34;;;;;;;25.33;20.83;;;13.60;99.90;;;;;;4976578;28;20393;-80
2022/10/30 09:14:00;;;;;;;26.65;20.88;;;13.70;99.90;;;;;;4973826;28;20043;-80
2022/10/30 09:16:25;;;;;;;29.65;19.92;;;13.80;99.90;;;;;;4979770;28;20065;-79
2022/10/30 09:18:51;;;;;;;27.45;18.65;;;13.90;99.90;;;;;;4962384;28;20396;-80
2022/10/30 09:21:17;;;;;;;25.92;20.35;;;14.00;99.90;;;;;;5001699;28;20141;-77
2022/10/30 09:23:43;;;;;;;31.45;20.33;;;14.10;99.90;;;;;;4963981;28;20053;-80
2022/10/30 09:26:09;;;;;;;23.52;19.27;;;14.20;99.90;;;;;;4975749;28;20046;-78
2022/10/30 09:28:34;;;;;;;23.67;19.40;;;14.30;99.90;;;;;;4971017;28;20523;-78
2022/10/30 09:31:00;;;;;;;21.73;17.50;;;14.40;99.90;;;;;;4961767;28;20042;-78
2022/10/30 09:33:26;;;;;;;25.42;18.05;;;14.60;99.90;;;;;;4993329;28;20145;-79
2022/10/30 09:35:51;;;;;;;25.30;17.83;;;14.70;99.90;;;;;;4993774;28;20039;-78
2022/10/30 09:38:17;;;;;;;18.90;16.20;;;14.90;99.90;;;;;;4961273;28;20175;-79
2022/10/30 09:40:49;;;;;;;22.92;16.73;;;15.10;99.90;;;;;;4993588;28;20034;-77
2022/10/30 09:43:33;;;;;;;19.70;16.27;;;15.20;99.90;;;;;;4975965;28;20043;-77
2022/10/30 09:46:08;;;;;;;21.25;15.80;;;15.40;99.90;;;;;;4990440;28;20543;-77
2022/10/30 09:49:20;;;;;;;17.27;15.23;;;15.40;99.90;;;;;;4942006;28;20043;-78
2022/10/30 09:52:13;;;;;;;20.48;16.67;;;15.60;99.90;;;;;;4969097;28;20136;-78
2022/10/30 09:54:53;;;;;;;19.35;15.13;;;15.70;99.90;;;;;;4959208;28;20474;-78
2022/10/30 09:58:00;;;;;;;18.98;15.23;;;15.80;99.90;;;;;;4984910;28;20042;-78
2022/10/30 10:00:43;;;;;;;22.08;14.93;;;16.00;99.90;;;;;;4985159;28;20061;-79
2022/10/30 10:03:32;;;;;;;23.00;14.45;;;16.20;99.90;;;;;;4991077;28;20048;-79
2022/10/30 10:05:59;;;;;;;16.63;13.38;;;16.30;99.90;;;;;;4987531;28;20401;-79
2022/10/30 10:08:36;;;;;;;21.45;13.98;;;16.40;99.90;;;;;;4971065;28;20038;-79
2022/10/30 10:11:15;;;;;;;21.05;13.23;;;16.50;99.90;;;;;;4990820;28;20501;-79
2022/10/30 10:13:55;;;;;;;20.05;13.27;;;16.50;99.90;;;;;;4985469;28;20054;-80
2022/10/30 10:16:34;;;;;;;17.05;13.13;;;16.60;99.90;;;;;;4960999;28;20038;-79
2022/10/30 10:19:10;;;;;;;15.40;12.07;;;16.70;99.90;;;;;;4960716;28;20034;-79
2022/10/30 10:21:44;;;;;;;23.23;12.52;;;16.80;99.90;;;;;;4960023;28;20073;-79
2022/10/30 10:24:21;;;;;;;17.08;12.88;;;17.00;99.90;;;;;;4961682;28;20097;-80
2022/10/30 10:26:55;;;;;;;15.52;12.30;;;17.20;99.90;;;;;;4976559;28;20052;-80
2022/10/30 10:29:46;;;;;;;19.52;13.43;;;17.40;99.90;;;;;;4992866;28;20069;-80
2022/10/30 10:32:30;;;;;;;17.13;12.05;;;17.50;99.90;;;;;;4992466;28;20045;-79
2022/10/30 10:35:15;;;;;;;17.75;11.73;;;17.60;99.90;;;;;;4986459;28;20038;-80
2022/10/30 10:37:56;;;;;;;16.75;12.07;;;17.60;99.90;;;;;;4956903;28;20039;-80
2022/10/30 10:40:36;;;;;;;18.25;11.35;;;17.70;99.90;;;;;;4992442;28;20062;-79
2022/10/30 10:43:21;;;;;;;16.15;11.02;;;17.80;99.90;;;;;;4990367;28;20116;-78
2022/10/30 10:46:14;;;;;;;15.60;11.27;;;17.80;99.90;;;;;;4947297;28;20042;-78
2022/10/30 10:48:55;;;;;;;18.25;11.88;;;17.90;99.90;;;;;;4973855;28;20409;-80
2022/10/30 10:51:30;;;;;;;20.02;12.50;;;17.90;99.90;;;;;;4969437;28;20034;-78
2022/10/30 10:54:25;;;;;;;15.65;11.15;;;18.00;99.90;;;;;;4959095;28;20038;-79
2022/10/30 10:56:51;;;;;;;14.82;10.45;;;18.10;99.90;;;;;;4970731;28;20049;-78
2022/10/30 10:59:41;;;;;;;17.77;11.88;;;18.20;99.90;;;;;;4992428;28;20042;-77
2022/10/30 11:02:09;;;;;;;16.30;10.60;;;18.20;99.90;;;;;;4959631;28;20100;-78
2022/10/30 11:04:37;;;;;;;14.65;10.30;;;18.30;99.90;;;;;;4959318;28;20042;-78
2022/10/30 11:07:19;;;;;;;17.25;10.40;;;18.30;99.90;;;;;;4974885;28;20039;-78
2022/10/30 11:09:50;;;;;;;18.05;10.32;;;18.30;99.90;;;;;;4974670;28;20093;-79
2022/10/30 11:12:24;;;;;;;15.95;11.25;;;18.40;99.90;;;;;;4941054;28;20408;-78
2022/10/30 11:14:50;;;;;;;13.65;10.35;;;18.50;99.90;;;;;;4956944;28;20050;-79
2022/10/30 11:17:23;;;;;;;13.35;10.65;;;18.50;99.90;;;;;;4973961;28;20038;-78
2022/10/30 11:19:53;;;;;;;16.20;11.13;;;18.50;99.90;;;;;;4959712;28;20034;-78
2022/10/30 11:22:49;;;;;;;15.30;10.25;;;18.60;99.90;;;;;;4971951;28;20392;-80
2022/10/30 11:25:20;;;;;;;15.45;10.30;;;18.80;99.90;;;;;;4994810;28;20054;-80
2022/10/30 11:27:55;;;;;;;16.75;10.23;;;19.10;99.90;;;;;;4996594;28;20068;-78
2022/10/30 11:30:23;;;;;;;13.93;9.48;;;19.30;99.90;;;;;;5029423;28;20129;-78
2022/10/30 11:32:49;;;;;;;16.95;10.00;;;19.50;99.90;;;;;;5000072;28;20101;-78
2022/10/30 11:35:17;;;;;;;13.85;9.32;;;19.60;99.90;;;;;;5011364;28;20045;-78
2022/10/30 11:37:45;;;;;;;12.25;8.68;;;19.80;99.90;;;;;;5018175;28;20095;-80
2022/10/30 11:40:10;;;;;;;11.90;8.63;;;19.90;99.90;;;;;;5024523;28;20406;-80
2022/10/30 11:42:58;;;;;;;14.90;8.45;;;20.00;99.90;;;;;;5028832;28;20037;-81
2022/10/30 11:45:37;;;;;;;11.07;8.30;;;20.10;99.90;;;;;;5017302;28;20538;-80
2022/10/30 11:48:09;;;;;;;10.82;8.50;;;20.00;99.90;;;;;;5028350;28;20037;-80
2022/10/30 11:50:36;;;;;;;16.23;8.40;;;19.80;99.90;;;;;;4995811;28;20045;-81
2022/10/30 11:53:14;;;;;;;14.40;9.05;;;19.70;99.90;;;;;;5013047;28;20046;-80
2022/10/30 11:55:45;;;;;;;14.40;9.75;;;19.80;99.90;;;;;;4996910;28;20037;-80
2022/10/30 11:58:22;;;;;;;17.67;8.63;;;19.90;99.90;;;;;;4995432;28;20492;-80
2022/10/30 12:00:59;;;;;;;11.88;8.50;;;19.90;99.90;;;;;;4998097;28;20042;-80
2022/10/30 12:03:34;;;;;;;15.18;8.32;;;19.90;99.90;;;;;;5014197;28;20052;-81
2022/10/30 12:06:27;;;;;;;18.27;8.88;;;19.80;99.90;;;;;;5014493;28;20049;-81
2022/10/30 12:09:21;;;;;;;13.88;8.38;;;19.80;99.90;;;;;;4997889;28;20057;-80
2022/10/30 12:11:47;;;;;;;13.93;8.48;;;19.80;99.90;;;;;;5017699;28;20049;-80
2022/10/30 12:14:25;;;;;;;12.50;8.52;;;19.70;99.90;;;;;;5038676;28;20065;-80
2022/10/30 12:16:54;;;;;;;16.05;9.20;;;19.60;99.90;;;;;;5006740;28;20088;-81
2022/10/30 12:19:22;;;;;;;13.10;9.18;;;19.50;99.90;;;;;;5013976;28;20562;-81
2022/10/30 12:21:53;;;;;;;15.80;9.35;;;19.60;99.90;;;;;;4995528;28;20034;-80
2022/10/30 12:24:35;;;;;;;12.57;9.25;;;19.60;99.90;;;;;;5028260;28;20489;-80
2022/10/30 12:27:04;;;;;;;15.25;9.07;;;19.60;99.90;;;;;;5027738;28;20042;-80
2022/10/30 12:29:48;;;;;;;13.73;8.85;;;19.70;99.90;;;;;;4994390;28;20500;-81
2022/10/30 12:32:18;;;;;;;16.52;8.98;;;19.90;99.90;;;;;;5011524;28;20081;-81
2022/10/30 12:34:49;;;;;;;13.00;8.18;;;20.00;99.90;;;;;;5011719;28;20042;-80
2022/10/30 12:37:32;;;;;;;13.25;8.25;;;20.00;99.90;;;;;;5011144;28;20044;-81
2022/10/30 12:40:23;;;;;;;12.70;7.85;;;20.10;99.90;;;;;;5012032;28;20038;-80
2022/10/30 12:43:12;;;;;;;12.73;7.85;;;20.20;99.90;;;;;;5010446;28;20050;-81
2022/10/30 12:45:42;;;;;;;17.70;9.13;;;20.30;99.90;;;;;;5004379;28;20037;-80